createdAt,value
2023-03-25T00:00:40.907Z,9.32
2023-03-25T00:03:09.478Z,9.38
2023-03-25T00:05:40.257Z,9.34
2023-03-25T00:08:07.402Z,9.30
2023-03-25T00:10:39.036Z,9.29
2023-03-25T00:13:08.528Z,9.29
2023-03-25T00:15:35.710Z,9.21
2023-03-25T00:18:03.923Z,9.18
2023-03-25T00:20:34.078Z,9.18
2023-03-25T00:23:03.384Z,9.23
2023-03-25T00:25:30.526Z,9.19
2023-03-25T00:28:00.295Z,9.18
2023-03-25T00:30:27.528Z,9.16
2023-03-25T00:32:57.966Z,9.14
2023-03-25T00:35:30.544Z,9.14
2023-03-25T00:38:02.347Z,9.12
2023-03-25T00:40:39.676Z,9.13
2023-03-25T00:43:12.656Z,9.08
2023-03-25T00:46:01.488Z,9.05
2023-03-25T00:48:42.410Z,9.02
2023-03-25T00:51:19.700Z,9.00
2023-03-25T00:53:56.439Z,8.99
2023-03-25T00:56:45.802Z,8.96
2023-03-25T00:59:28.884Z,8.97
2023-03-25T01:02:10.940Z,8.95
2023-03-25T01:04:44.230Z,8.89
2023-03-25T01:07:20.578Z,8.88
2023-03-25T01:09:48.997Z,8.88
2023-03-25T01:12:24.777Z,8.88
2023-03-25T01:14:56.942Z,8.73
2023-03-25T01:17:24.299Z,8.75
2023-03-25T01:19:51.576Z,8.81
2023-03-25T01:22:21.151Z,8.80
2023-03-25T01:24:50.749Z,8.79
2023-03-25T01:27:17.999Z,8.78
2023-03-25T01:29:48.148Z,8.80
2023-03-25T01:32:23.281Z,8.70
2023-03-25T01:35:12.542Z,8.67
2023-03-25T01:37:44.819Z,8.71
2023-03-25T01:40:18.216Z,8.70
2023-03-25T01:42:45.298Z,8.67
2023-03-25T01:45:24.104Z,8.67
2023-03-25T01:47:58.785Z,8.66
2023-03-25T01:50:29.462Z,8.67
2023-03-25T01:52:58.069Z,8.63
2023-03-25T01:55:27.694Z,8.60
2023-03-25T01:57:57.253Z,8.64
2023-03-25T02:00:26.203Z,8.63
2023-03-25T02:02:55.079Z,8.61
2023-03-25T02:05:26.086Z,8.62
2023-03-25T02:07:54.981Z,8.58
2023-03-25T02:10:24.730Z,8.58
2023-03-25T02:12:51.696Z,8.63
2023-03-25T02:15:19.316Z,8.68
2023-03-25T02:18:03.634Z,8.72
2023-03-25T02:20:48.824Z,8.73
2023-03-25T02:23:28.676Z,8.76
2023-03-25T02:26:27.756Z,8.76
2023-03-25T02:29:02.293Z,8.75
2023-03-25T02:32:01.679Z,8.75
2023-03-25T02:34:54.193Z,8.71
2023-03-25T02:37:52.580Z,8.74
2023-03-25T02:40:52.414Z,8.74
2023-03-25T02:43:26.010Z,8.76
2023-03-25T02:45:56.516Z,8.77
2023-03-25T02:48:35.176Z,8.78
2023-03-25T02:51:06.531Z,8.81
2023-03-25T02:53:34.693Z,8.81
2023-03-25T02:56:05.081Z,8.88
2023-03-25T02:58:33.362Z,8.90
2023-03-25T03:01:00.408Z,8.89
2023-03-25T03:03:30.998Z,8.93
2023-03-25T03:06:07.850Z,8.88
2023-03-25T03:08:50.395Z,8.87
2023-03-25T03:11:22.647Z,8.93
2023-03-25T03:14:30.108Z,8.88
2023-03-25T03:17:10.244Z,8.89
2023-03-25T03:19:46.648Z,8.80
2023-03-25T03:22:26.010Z,8.83
2023-03-25T03:25:18.259Z,8.89
2023-03-25T03:27:55.858Z,8.91
2023-03-25T03:30:34.225Z,8.89
2023-03-25T03:33:15.685Z,8.95
2023-03-25T03:35:51.925Z,8.96
2023-03-25T03:38:21.646Z,9.02
2023-03-25T03:40:56.263Z,9.01
2023-03-25T03:43:39.309Z,9.01
2023-03-25T03:46:35.498Z,9.00
2023-03-25T03:49:09.627Z,8.85
2023-03-25T03:51:40.771Z,8.81
2023-03-25T03:54:28.524Z,8.78
2023-03-25T03:57:31.333Z,8.80
2023-03-25T04:00:13.919Z,8.77
2023-03-25T04:02:55.817Z,8.74
2023-03-25T04:05:33.931Z,8.67
2023-03-25T04:08:12.245Z,8.70
2023-03-25T04:10:47.067Z,8.67
2023-03-25T04:13:23.876Z,8.66
2023-03-25T04:15:57.507Z,8.59
2023-03-25T04:18:28.966Z,8.51
2023-03-25T04:21:15.959Z,8.56
2023-03-25T04:23:54.320Z,8.52
2023-03-25T04:26:35.236Z,8.53
2023-03-25T04:29:27.813Z,8.52
2023-03-25T04:32:08.651Z,8.50
2023-03-25T04:34:54.202Z,8.48
2023-03-25T04:37:33.975Z,8.45
2023-03-25T04:40:18.095Z,8.48
2023-03-25T04:43:22.292Z,8.49
2023-03-25T04:46:25.938Z,8.57
2023-03-25T04:49:08.442Z,8.50
2023-03-25T04:58:36.673Z,8.47
2023-03-25T05:05:00.869Z,8.47
2023-03-25T05:11:28.949Z,8.45
2023-03-25T05:15:16.324Z,8.52
2023-03-25T05:18:17.286Z,8.46
2023-03-25T05:20:47.110Z,8.60
2023-03-25T05:23:18.174Z,8.66
2023-03-25T05:25:46.464Z,8.75
2023-03-25T05:32:38.112Z,8.63
2023-03-25T05:41:33.356Z,8.42
2023-03-25T05:44:01.059Z,8.57
2023-03-25T05:46:29.874Z,8.57
2023-03-25T05:49:01.152Z,8.61
2023-03-25T05:51:29.492Z,8.60
2023-03-25T05:53:56.412Z,8.62
2023-03-25T05:56:24.479Z,8.70
2023-03-25T05:59:13.390Z,8.73
2023-03-25T06:01:47.794Z,8.78
2023-03-25T06:04:17.021Z,8.81
2023-03-25T06:06:46.516Z,8.75
2023-03-25T06:09:27.575Z,8.79
2023-03-25T06:11:55.737Z,8.87
2023-03-25T06:14:30.280Z,8.87
2023-03-25T06:16:57.504Z,8.87
2023-03-25T06:19:37.357Z,8.80
2023-03-25T06:22:04.560Z,8.72
2023-03-25T06:24:31.344Z,8.59
2023-03-25T06:26:58.115Z,8.65
2023-03-25T06:32:19.004Z,8.82
2023-03-25T07:15:33.427Z,8.81
2023-03-25T07:18:00.544Z,8.91
2023-03-25T07:20:27.545Z,9.00
2023-03-25T07:22:55.541Z,9.07
2023-03-25T07:25:22.714Z,9.01
2023-03-25T07:27:49.706Z,9.09
2023-03-25T07:30:37.183Z,9.13
2023-03-25T07:33:11.913Z,9.12
2023-03-25T07:35:38.917Z,9.22
2023-03-25T07:38:10.273Z,9.15
2023-03-25T07:40:39.757Z,9.25
2023-03-25T07:43:16.633Z,9.38
2023-03-25T07:54:05.194Z,9.59
2023-03-25T07:56:33.242Z,9.75
2023-03-25T08:02:35.345Z,9.67
2023-03-25T08:08:25.479Z,9.82
2023-03-25T08:10:53.969Z,9.84
2023-03-25T08:13:30.333Z,9.91
2023-03-25T08:16:00.701Z,9.99
2023-03-25T08:18:39.403Z,10.01
2023-03-25T08:21:30.613Z,9.97
2023-03-25T08:24:07.860Z,9.96
2023-03-25T08:26:40.649Z,10.03
2023-03-25T08:29:20.793Z,10.06
2023-03-25T08:32:01.428Z,10.07
2023-03-25T08:38:06.801Z,10.01
2023-03-25T08:41:27.033Z,10.04
2023-03-25T08:43:53.934Z,10.10
2023-03-25T08:46:55.666Z,10.05
2023-03-25T08:50:06.442Z,9.93
2023-03-25T08:52:46.594Z,9.98
2023-03-25T08:56:23.642Z,9.91
2023-03-25T08:59:06.417Z,9.91
2023-03-25T09:01:40.432Z,9.91
2023-03-25T09:04:07.672Z,9.92
2023-03-25T09:06:47.702Z,9.89
2023-03-25T09:09:26.535Z,9.92
2023-03-25T09:11:53.542Z,9.92
2023-03-25T09:14:20.565Z,9.93
2023-03-25T09:16:47.657Z,9.83
2023-03-25T09:19:34.871Z,9.74
2023-03-25T09:22:23.025Z,9.78
2023-03-25T09:25:00.323Z,9.82
2023-03-25T09:27:53.783Z,9.65
2023-03-25T09:31:49.635Z,9.33
2023-03-25T09:40:34.215Z,9.26
2023-03-25T09:44:21.361Z,9.19
2023-03-25T10:05:23.169Z,9.83
2023-03-25T10:30:54.192Z,10.34
2023-03-25T10:38:15.136Z,10.52
2023-03-25T10:40:52.287Z,10.57
2023-03-25T10:47:46.110Z,10.63
2023-03-25T10:57:33.836Z,11.14
2023-03-25T11:00:18.676Z,11.17
2023-03-25T11:02:47.346Z,11.14
2023-03-25T11:05:19.933Z,11.21
2023-03-25T11:08:24.176Z,11.43
2023-03-25T11:14:40.991Z,11.52
2023-03-25T11:20:35.371Z,11.38
2023-03-25T11:23:29.994Z,11.54
2023-03-25T11:26:57.464Z,11.48
2023-03-25T11:29:43.558Z,11.41
2023-03-25T11:32:41.326Z,11.37
2023-03-25T11:35:45.905Z,11.38
2023-03-25T11:39:05.170Z,11.26
2023-03-25T11:49:26.428Z,10.63
2023-03-25T11:52:01.892Z,10.55
2023-03-25T11:54:29.380Z,10.48
2023-03-25T11:56:57.872Z,10.42
2023-03-25T11:59:36.772Z,10.48
2023-03-25T12:02:15.816Z,10.57
2023-03-25T12:04:56.345Z,10.57
2023-03-25T12:07:26.628Z,10.77
2023-03-25T12:09:59.563Z,11.01
2023-03-25T12:12:29.886Z,11.10
2023-03-25T12:15:03.612Z,11.22
2023-03-25T12:30:12.075Z,11.14
2023-03-25T12:33:06.864Z,11.14
2023-03-25T12:35:44.432Z,11.13
2023-03-25T12:38:29.520Z,11.14
2023-03-25T12:41:25.947Z,11.09
2023-03-25T12:44:07.440Z,11.14
2023-03-25T12:46:56.155Z,11.28
2023-03-25T12:49:48.641Z,11.35
2023-03-25T12:52:20.230Z,11.46
2023-03-25T12:55:05.780Z,11.44
2023-03-25T12:57:58.837Z,11.41
2023-03-25T13:00:28.958Z,11.39
2023-03-25T13:03:09.997Z,11.31
2023-03-25T13:05:52.681Z,11.23
2023-03-25T13:08:32.685Z,11.36
2023-03-25T13:11:22.933Z,11.44
2023-03-25T13:13:51.955Z,11.39
2023-03-25T13:16:25.237Z,11.28
2023-03-25T13:19:02.503Z,11.08
2023-03-25T13:21:33.424Z,11.18
2023-03-25T13:24:22.782Z,11.01
2023-03-25T13:26:53.283Z,10.60
2023-03-25T13:29:28.805Z,10.47
2023-03-25T13:31:58.877Z,10.61
2023-03-25T13:34:35.543Z,10.72
2023-03-25T13:37:33.690Z,10.94
2023-03-25T13:40:11.110Z,11.13
2023-03-25T13:42:45.077Z,11.24
2023-03-25T13:45:20.118Z,11.29
2023-03-25T13:47:53.171Z,11.24
2023-03-25T13:50:29.124Z,11.11
2023-03-25T13:53:09.639Z,10.99
2023-03-25T13:55:45.128Z,10.93
2023-03-25T13:58:30.937Z,10.88
2023-03-25T14:01:13.088Z,10.89
2023-03-25T14:03:40.070Z,11.02
2023-03-25T14:07:04.006Z,11.01
2023-03-25T14:09:49.596Z,10.99
2023-03-25T14:12:27.109Z,11.08
2023-03-25T14:15:47.249Z,11.09
2023-03-25T14:18:20.190Z,11.07
2023-03-25T14:20:51.481Z,11.14
2023-03-25T14:23:28.992Z,11.29
2023-03-25T14:26:00.189Z,11.37
2023-03-25T14:28:41.449Z,11.39
2023-03-25T14:31:08.432Z,11.59
2023-03-25T14:34:00.941Z,11.66
2023-03-25T14:36:31.505Z,11.78
2023-03-25T14:38:59.759Z,11.80
2023-03-25T14:42:02.086Z,11.68
2023-03-25T14:44:33.451Z,11.75
2023-03-25T14:47:23.069Z,11.87
2023-03-25T14:50:05.085Z,11.73
2023-03-25T14:52:33.160Z,11.49
2023-03-25T14:55:06.548Z,11.38
2023-03-25T14:57:40.946Z,11.26
2023-03-25T15:00:16.266Z,11.18
2023-03-25T15:02:44.598Z,11.00
2023-03-25T15:05:12.187Z,10.97
2023-03-25T15:07:54.477Z,10.87
2023-03-25T15:10:28.137Z,10.83
2023-03-25T15:13:07.691Z,11.08
2023-03-25T15:15:34.588Z,11.65
2023-03-25T15:18:01.458Z,12.11
2023-03-25T15:20:29.788Z,12.26
2023-03-25T15:23:18.886Z,13.02
2023-03-25T15:25:47.178Z,13.26
2023-03-25T15:28:19.886Z,13.42
2023-03-25T15:31:20.384Z,13.80
2023-03-25T15:34:00.724Z,14.38
2023-03-25T15:36:53.986Z,14.45
2023-03-25T15:39:54.069Z,14.74
2023-03-25T15:42:38.051Z,15.24
2023-03-25T15:45:19.703Z,14.79
2023-03-25T15:48:05.412Z,15.07
2023-03-25T15:50:44.316Z,15.14
2023-03-25T15:53:35.804Z,15.25
2023-03-25T15:56:14.150Z,14.90
2023-03-25T15:59:05.893Z,14.67
2023-03-25T16:01:39.467Z,14.31
2023-03-25T16:04:20.777Z,13.51
2023-03-25T16:06:52.490Z,12.98
2023-03-25T16:09:28.987Z,12.62
2023-03-25T16:12:01.570Z,12.34
2023-03-25T16:14:31.145Z,12.14
2023-03-25T16:17:00.475Z,11.86
2023-03-25T16:19:41.846Z,11.68
2023-03-25T16:22:20.078Z,11.51
2023-03-25T16:24:48.757Z,11.46
2023-03-25T16:27:29.644Z,11.33
2023-03-25T16:29:57.056Z,11.13
2023-03-25T16:32:26.512Z,11.06
2023-03-25T16:34:59.813Z,10.70
2023-03-25T16:37:27.550Z,10.60
2023-03-25T16:39:56.848Z,10.31
2023-03-25T16:42:31.448Z,10.18
2023-03-25T16:44:58.236Z,9.98
2023-03-25T16:47:25.466Z,9.93
2023-03-25T16:49:54.805Z,9.88
2023-03-25T16:52:28.835Z,9.87
2023-03-25T16:54:55.725Z,9.81
2023-03-25T16:57:27.901Z,9.73
2023-03-25T16:59:56.262Z,9.60
2023-03-25T17:02:27.797Z,9.60
2023-03-25T17:04:58.118Z,9.57
2023-03-25T17:07:26.957Z,9.55
2023-03-25T17:09:59.128Z,9.58
2023-03-25T17:12:27.622Z,9.60
2023-03-25T17:15:04.585Z,9.58
2023-03-25T17:17:51.435Z,9.58
2023-03-25T17:20:24.538Z,9.54
2023-03-25T17:23:38.246Z,9.51
2023-03-25T17:26:15.645Z,9.54
2023-03-25T17:28:56.832Z,9.59
2023-03-25T17:31:43.673Z,9.33
2023-03-25T17:34:17.123Z,9.42
2023-03-25T17:36:47.965Z,9.30
2023-03-25T17:39:18.458Z,9.24
2023-03-25T17:41:46.384Z,9.11
2023-03-25T17:44:17.865Z,8.99
2023-03-25T17:46:45.706Z,9.08
2023-03-25T17:49:18.982Z,9.04
2023-03-25T17:51:46.868Z,8.93
2023-03-25T17:54:14.960Z,8.92
2023-03-25T17:56:47.184Z,8.80
2023-03-25T17:59:18.229Z,8.95
2023-03-25T18:01:50.543Z,8.95
2023-03-25T18:04:21.401Z,8.97
2023-03-25T18:06:48.739Z,9.06
2023-03-25T18:09:21.390Z,8.95
2023-03-25T18:11:50.872Z,9.05
2023-03-25T18:14:17.834Z,9.09
2023-03-25T18:16:44.745Z,9.09
2023-03-25T18:19:17.366Z,9.13
2023-03-25T18:21:44.503Z,9.17
2023-03-25T18:24:14.145Z,9.24
2023-03-25T18:26:43.820Z,9.23
2023-03-25T18:29:28.948Z,9.04
2023-03-25T18:31:56.180Z,9.02
2023-03-25T18:34:25.577Z,9.10
2023-03-25T18:36:54.133Z,9.17
2023-03-25T18:39:23.702Z,9.17
2023-03-25T18:41:50.649Z,9.15
2023-03-25T18:44:17.612Z,9.22
2023-03-25T18:46:44.483Z,9.18
2023-03-25T18:49:17.525Z,9.21
2023-03-25T18:51:45.613Z,9.22
2023-03-25T18:54:14.390Z,9.22
2023-03-25T18:56:42.396Z,9.18
2023-03-25T18:59:17.234Z,9.17
2023-03-25T19:01:44.457Z,9.18
2023-03-25T19:04:14.693Z,9.14
2023-03-25T19:06:44.492Z,9.02
2023-03-25T19:09:18.467Z,9.02
2023-03-25T19:11:49.025Z,9.08
2023-03-25T19:14:16.663Z,9.10
2023-03-25T19:17:01.219Z,9.10
2023-03-25T19:19:41.177Z,9.09
2023-03-25T19:22:10.229Z,9.11
2023-03-25T19:24:38.202Z,9.12
2023-03-25T19:27:05.677Z,9.01
2023-03-25T19:29:33.211Z,9.11
2023-03-25T19:32:00.815Z,8.85
2023-03-25T19:34:28.914Z,8.73
2023-03-25T19:37:02.965Z,8.60
2023-03-25T19:39:30.846Z,8.65
2023-03-25T19:41:59.504Z,8.73
2023-03-25T19:44:26.623Z,8.85
2023-03-25T19:46:54.115Z,8.75
2023-03-25T19:49:36.341Z,8.82
2023-03-25T19:52:06.800Z,8.79
2023-03-25T19:54:33.595Z,8.82
2023-03-25T19:57:00.375Z,8.70
2023-03-25T19:59:27.345Z,8.62
2023-03-25T20:01:54.688Z,8.71
2023-03-25T20:04:21.524Z,8.65
2023-03-25T20:06:49.391Z,8.59
2023-03-25T20:09:17.419Z,8.63
2023-03-25T20:11:44.997Z,8.51
2023-03-25T20:14:11.942Z,8.45
2023-03-25T20:16:41.513Z,8.43
2023-03-25T20:19:08.582Z,8.42
2023-03-25T20:21:35.566Z,8.42
2023-03-25T20:24:04.870Z,8.23
2023-03-25T20:26:31.960Z,8.26
2023-03-25T20:28:58.978Z,8.30
2023-03-25T20:31:26.090Z,8.37
2023-03-25T20:33:53.227Z,8.41
2023-03-25T20:36:20.489Z,8.46
2023-03-25T20:38:57.291Z,8.56
2023-03-25T20:41:26.609Z,8.52
2023-03-25T20:43:53.537Z,8.51
2023-03-25T20:46:25.165Z,8.67
2023-03-25T20:48:55.956Z,8.61
2023-03-25T20:51:26.049Z,8.64
2023-03-25T20:53:53.618Z,8.49
2023-03-25T20:56:21.315Z,8.42
2023-03-25T20:58:54.292Z,8.41
2023-03-25T21:01:21.547Z,8.32
2023-03-25T21:03:52.189Z,8.21
2023-03-25T21:06:23.599Z,8.02
2023-03-25T21:08:51.692Z,8.19
2023-03-25T21:11:18.504Z,7.99
2023-03-25T21:13:45.784Z,8.14
2023-03-25T21:16:14.254Z,8.24
2023-03-25T21:18:42.989Z,8.06
2023-03-25T21:21:10.383Z,8.18
2023-03-25T21:23:37.247Z,8.29
2023-03-25T21:26:09.669Z,8.37
2023-03-25T21:28:39.231Z,8.26
2023-03-25T21:31:17.463Z,8.15
2023-03-25T21:33:49.948Z,8.04
2023-03-25T21:36:20.328Z,7.95
2023-03-25T21:38:47.421Z,7.87
2023-03-25T21:41:14.714Z,7.67
2023-03-25T21:43:42.514Z,7.82
2023-03-25T21:46:10.870Z,7.92
2023-03-25T21:48:38.888Z,7.84
2023-03-25T21:51:10.288Z,7.72
2023-03-25T21:53:46.921Z,7.76
2023-03-25T21:56:21.485Z,7.84
2023-03-25T21:58:52.194Z,7.79
2023-03-25T22:01:28.721Z,7.91
2023-03-25T22:03:57.516Z,8.00
2023-03-25T22:06:31.088Z,8.00
2023-03-25T22:08:59.434Z,8.04
2023-03-25T22:11:31.548Z,7.94
2023-03-25T22:13:58.678Z,7.90
2023-03-25T22:16:26.257Z,7.91
2023-03-25T22:18:53.758Z,8.00
2023-03-25T22:21:23.321Z,8.05
2023-03-25T22:23:54.385Z,8.03
2023-03-25T22:26:22.009Z,7.99
2023-03-25T22:28:51.432Z,7.98
2023-03-25T22:31:20.006Z,8.02
2023-03-25T22:33:49.517Z,7.97
2023-03-25T22:36:17.912Z,7.99
2023-03-25T22:38:46.540Z,7.94
2023-03-25T22:41:16.014Z,7.87
2023-03-25T22:43:49.418Z,7.93
2023-03-25T22:46:16.585Z,8.03
2023-03-25T22:48:43.525Z,7.98
2023-03-25T22:51:16.202Z,7.90
2023-03-25T22:53:43.786Z,7.92
2023-03-25T22:56:11.582Z,7.91
2023-03-25T22:58:39.521Z,7.90
2023-03-25T23:01:24.088Z,7.92
2023-03-25T23:03:51.973Z,7.99
2023-03-25T23:06:19.575Z,7.91
2023-03-25T23:08:47.556Z,7.83
2023-03-25T23:11:20.462Z,7.76
2023-03-25T23:13:50.648Z,7.80
2023-03-25T23:16:20.757Z,7.80
2023-03-25T23:18:47.895Z,7.77
2023-03-25T23:21:22.505Z,7.70
2023-03-25T23:23:53.436Z,7.44
2023-03-25T23:26:30.109Z,7.33
2023-03-25T23:29:00.751Z,7.41
2023-03-25T23:31:34.427Z,7.51
2023-03-25T23:34:04.272Z,7.40
2023-03-25T23:36:34.501Z,7.36
2023-03-25T23:39:02.609Z,7.39
2023-03-25T23:41:29.972Z,7.34
2023-03-25T23:43:56.949Z,7.37
2023-03-25T23:46:25.074Z,7.21
2023-03-25T23:48:56.027Z,7.15
2023-03-25T23:51:24.632Z,6.99
2023-03-25T23:53:52.627Z,6.89
2023-03-25T23:56:23.062Z,6.94
2023-03-25T23:58:51.193Z,6.90
